sensor_id;sensor_type;location;lat;lon;timestamp;pressure;altitude;pressure_sealevel;temperature;humidity
41947;BME280;27638;42.184;24.848;2024-01-11T00:00:12;101100.50;;;1.40;95.22
41947;BME280;27638;42.184;24.848;2024-01-11T00:02:38;101096.22;;;1.39;95.16
41947;BME280;27638;42.184;24.848;2024-01-11T00:05:04;101105.81;;;1.38;95.08
41947;BME280;27638;42.184;24.848;2024-01-11T00:07:29;101103.75;;;1.45;94.78
41947;BME280;27638;42.184;24.848;2024-01-11T00:09:55;101104.47;;;1.48;94.36
41947;BME280;27638;42.184;24.848;2024-01-11T00:12:20;101101.06;;;1.46;93.76
41947;BME280;27638;42.184;24.848;2024-01-11T00:14:46;101093.16;;;1.48;93.52
41947;BME280;27638;42.184;24.848;2024-01-11T00:17:12;101093.09;;;1.49;93.59
41947;BME280;27638;42.184;24.848;2024-01-11T00:19:37;101091.34;;;1.50;93.51
41947;BME280;27638;42.184;24.848;2024-01-11T00:22:03;101090.50;;;1.49;92.96
41947;BME280;27638;42.184;24.848;2024-01-11T00:24:28;101092.25;;;1.49;92.98
41947;BME280;27638;42.184;24.848;2024-01-11T00:26:54;101091.63;;;1.44;93.13
41947;BME280;27638;42.184;24.848;2024-01-11T00:29:19;101085.63;;;1.42;92.76
41947;BME280;27638;42.184;24.848;2024-01-11T00:31:45;101079.56;;;1.41;93.51
41947;BME280;27638;42.184;24.848;2024-01-11T00:34:11;101085.69;;;1.40;93.28
41947;BME280;27638;42.184;24.848;2024-01-11T00:36:36;101078.66;;;1.42;93.17
41947;BME280;27638;42.184;24.848;2024-01-11T00:39:02;101075.19;;;1.42;93.02
41947;BME280;27638;42.184;24.848;2024-01-11T00:41:28;101068.28;;;1.41;92.67
41947;BME280;27638;42.184;24.848;2024-01-11T00:43:53;101072.66;;;1.40;92.49
41947;BME280;27638;42.184;24.848;2024-01-11T00:46:19;101065.44;;;1.45;92.73
41947;BME280;27638;42.184;24.848;2024-01-11T00:48:44;101062.56;;;1.51;91.74
41947;BME280;27638;42.184;24.848;2024-01-11T00:51:10;101054.78;;;1.50;91.63
41947;BME280;27638;42.184;24.848;2024-01-11T00:53:35;101048.88;;;1.46;91.46
41947;BME280;27638;42.184;24.848;2024-01-11T00:56:01;101051.56;;;1.45;91.11
41947;BME280;27638;42.184;24.848;2024-01-11T00:58:27;101041.13;;;1.45;91.02
41947;BME280;27638;42.184;24.848;2024-01-11T01:00:53;101038.28;;;1.49;91.06
41947;BME280;27638;42.184;24.848;2024-01-11T01:03:22;101038.22;;;1.51;90.52
41947;BME280;27638;42.184;24.848;2024-01-11T01:05:47;101029.47;;;1.52;90.36
41947;BME280;27638;42.184;24.848;2024-01-11T01:08:14;101023.47;;;1.50;90.31
41947;BME280;27638;42.184;24.848;2024-01-11T01:10:39;101030.16;;;1.55;90.21
41947;BME280;27638;42.184;24.848;2024-01-11T01:13:05;101034.38;;;1.58;89.56
41947;BME280;27638;42.184;24.848;2024-01-11T01:15:31;101018.88;;;1.55;88.98
41947;BME280;27638;42.184;24.848;2024-01-11T01:17:56;101016.78;;;1.44;89.88
41947;BME280;27638;42.184;24.848;2024-01-11T01:20:22;101024.16;;;1.53;89.78
41947;BME280;27638;42.184;24.848;2024-01-11T01:22:49;101015.19;;;1.59;88.62
41947;BME280;27638;42.184;24.848;2024-01-11T01:25:14;101020.13;;;1.29;90.07
41947;BME280;27638;42.184;24.848;2024-01-11T01:27:40;101014.25;;;1.43;90.10
41947;BME280;27638;42.184;24.848;2024-01-11T01:30:06;100978.22;;;1.32;89.28
41947;BME280;27638;42.184;24.848;2024-01-11T01:32:32;101012.59;;;1.59;88.54
41947;BME280;27638;42.184;24.848;2024-01-11T01:34:57;101015.19;;;1.59;87.69
41947;BME280;27638;42.184;24.848;2024-01-11T01:37:23;100996.84;;;1.60;87.28
41947;BME280;27638;42.184;24.848;2024-01-11T01:39:48;100998.47;;;1.63;86.77
41947;BME280;27638;42.184;24.848;2024-01-11T01:42:14;101007.06;;;1.29;88.01
41947;BME280;27638;42.184;24.848;2024-01-11T01:44:40;101004.56;;;1.45;87.47
41947;BME280;27638;42.184;24.848;2024-01-11T01:47:07;100999.91;;;1.51;86.83
41947;BME280;27638;42.184;24.848;2024-01-11T01:49:34;100993.75;;;1.52;87.10
41947;BME280;27638;42.184;24.848;2024-01-11T01:52:01;100986.09;;;1.49;87.54
41947;BME280;27638;42.184;24.848;2024-01-11T01:54:28;100980.09;;;1.47;87.26
41947;BME280;27638;42.184;24.848;2024-01-11T01:56:55;100980.78;;;1.51;86.51
41947;BME280;27638;42.184;24.848;2024-01-11T01:59:22;100979.25;;;1.47;86.38
41947;BME280;27638;42.184;24.848;2024-01-11T02:01:49;100969.72;;;1.46;86.45
41947;BME280;27638;42.184;24.848;2024-01-11T02:04:15;100967.81;;;1.49;86.40
41947;BME280;27638;42.184;24.848;2024-01-11T02:06:46;100963.72;;;1.44;86.21
41947;BME280;27638;42.184;24.848;2024-01-11T02:09:13;100955.31;;;1.20;87.06
41947;BME280;27638;42.184;24.848;2024-01-11T02:11:40;100959.63;;;1.21;87.86
41947;BME280;27638;42.184;24.848;2024-01-11T02:14:07;100961.31;;;1.22;87.09
41947;BME280;27638;42.184;24.848;2024-01-11T02:16:32;100955.16;;;1.23;87.07
41947;BME280;27638;42.184;24.848;2024-01-11T02:18:58;100947.50;;;1.20;86.95
41947;BME280;27638;42.184;24.848;2024-01-11T02:21:24;100952.78;;;1.18;86.85
41947;BME280;27638;42.184;24.848;2024-01-11T02:24:06;100937.19;;;1.17;86.90
41947;BME280;27638;42.184;24.848;2024-01-11T02:26:33;100945.72;;;1.20;87.12
41947;BME280;27638;42.184;24.848;2024-01-11T02:28:59;100942.56;;;1.14;87.46
41947;BME280;27638;42.184;24.848;2024-01-11T02:31:25;100938.19;;;1.14;87.28
41947;BME280;27638;42.184;24.848;2024-01-11T02:33:52;100941.09;;;1.08;87.88
41947;BME280;27638;42.184;24.848;2024-01-11T02:36:21;100933.34;;;1.07;88.01
41947;BME280;27638;42.184;24.848;2024-01-11T02:38:47;100947.38;;;1.04;87.75
41947;BME280;27638;42.184;24.848;2024-01-11T02:41:16;100942.94;;;1.06;88.04
41947;BME280;27638;42.184;24.848;2024-01-11T02:43:46;100939.03;;;0.96;87.81
41947;BME280;27638;42.184;24.848;2024-01-11T02:46:14;100944.38;;;0.93;88.07
41947;BME280;27638;42.184;24.848;2024-01-11T02:48:39;100946.78;;;0.79;89.03
41947;BME280;27638;42.184;24.848;2024-01-11T02:51:05;100951.88;;;0.63;89.67
41947;BME280;27638;42.184;24.848;2024-01-11T02:53:30;100958.41;;;0.53;90.16
41947;BME280;27638;42.184;24.848;2024-01-11T02:56:00;100953.34;;;0.50;90.48
41947;BME280;27638;42.184;24.848;2024-01-11T02:58:25;100948.25;;;0.47;90.71
41947;BME280;27638;42.184;24.848;2024-01-11T03:00:51;100955.16;;;0.48;90.93
41947;BME280;27638;42.184;24.848;2024-01-11T03:03:16;100947.97;;;0.53;90.97
41947;BME280;27638;42.184;24.848;2024-01-11T03:05:42;100944.19;;;0.60;90.35
41947;BME280;27638;42.184;24.848;2024-01-11T03:08:07;100950.09;;;0.63;89.41
41947;BME280;27638;42.184;24.848;2024-01-11T03:10:33;100940.16;;;0.72;88.98
41947;BME280;27638;42.184;24.848;2024-01-11T03:12:58;100942.72;;;0.73;88.62
41947;BME280;27638;42.184;24.848;2024-01-11T03:15:24;100942.91;;;0.69;88.64
41947;BME280;27638;42.184;24.848;2024-01-11T03:17:49;100934.19;;;0.70;88.38
41947;BME280;27638;42.184;24.848;2024-01-11T03:20:14;100936.16;;;0.64;88.09
41947;BME280;27638;42.184;24.848;2024-01-11T03:22:50;100936.00;;;0.68;88.23
41947;BME280;27638;42.184;24.848;2024-01-11T03:25:17;100928.13;;;0.69;87.53
41947;BME280;27638;42.184;24.848;2024-01-11T03:27:42;100931.44;;;0.73;87.96
41947;BME280;27638;42.184;24.848;2024-01-11T03:30:08;100933.91;;;0.76;87.41
41947;BME280;27638;42.184;24.848;2024-01-11T03:32:33;100923.25;;;0.80;86.90
41947;BME280;27638;42.184;24.848;2024-01-11T03:34:59;100925.66;;;0.85;86.55
41947;BME280;27638;42.184;24.848;2024-01-11T03:37:24;100925.66;;;0.85;86.12
41947;BME280;27638;42.184;24.848;2024-01-11T03:39:50;100927.41;;;0.84;86.08
41947;BME280;27638;42.184;24.848;2024-01-11T03:42:15;100928.41;;;0.82;86.40
41947;BME280;27638;42.184;24.848;2024-01-11T03:44:40;100926.63;;;0.82;86.33
41947;BME280;27638;42.184;24.848;2024-01-11T03:47:06;100931.78;;;0.84;85.63
41947;BME280;27638;42.184;24.848;2024-01-11T03:49:31;100925.78;;;0.82;85.38
41947;BME280;27638;42.184;24.848;2024-01-11T03:51:57;100922.13;;;0.86;85.42
41947;BME280;27638;42.184;24.848;2024-01-11T03:54:22;100914.38;;;0.84;85.56
41947;BME280;27638;42.184;24.848;2024-01-11T03:56:48;100912.75;;;0.82;85.82
41947;BME280;27638;42.184;24.848;2024-01-11T03:59:13;100915.28;;;0.83;85.59
41947;BME280;27638;42.184;24.848;2024-01-11T04:01:42;100904.03;;;0.83;85.48
41947;BME280;27638;42.184;24.848;2024-01-11T04:04:08;100903.38;;;0.78;85.67
41947;BME280;27638;42.184;24.848;2024-01-11T04:06:34;100904.31;;;0.77;85.56
41947;BME280;27638;42.184;24.848;2024-01-11T04:08:59;100907.06;;;0.74;85.75
41947;BME280;27638;42.184;24.848;2024-01-11T04:11:28;100895.09;;;0.70;85.62
41947;BME280;27638;42.184;24.848;2024-01-11T04:13:54;100887.53;;;0.63;86.06
41947;BME280;27638;42.184;24.848;2024-01-11T04:16:20;100894.31;;;0.68;85.95
41947;BME280;27638;42.184;24.848;2024-01-11T04:18:45;100889.94;;;0.68;86.38
41947;BME280;27638;42.184;24.848;2024-01-11T04:21:24;100892.47;;;0.70;85.71
41947;BME280;27638;42.184;24.848;2024-01-11T04:23:50;100890.72;;;0.70;86.23
41947;BME280;27638;42.184;24.848;2024-01-11T04:26:17;100893.25;;;0.72;85.91
41947;BME280;27638;42.184;24.848;2024-01-11T04:28:44;100894.53;;;0.63;85.71
41947;BME280;27638;42.184;24.848;2024-01-11T04:31:10;100896.22;;;0.64;85.71
41947;BME280;27638;42.184;24.848;2024-01-11T04:33:35;100894.53;;;0.63;86.08
41947;BME280;27638;42.184;24.848;2024-01-11T04:36:01;100888.41;;;0.64;85.65
41947;BME280;27638;42.184;24.848;2024-01-11T04:38:26;100894.38;;;0.66;85.94
41947;BME280;27638;42.184;24.848;2024-01-11T04:40:52;100890.09;;;0.65;85.01
41947;BME280;27638;42.184;24.848;2024-01-11T04:43:17;100897.13;;;0.63;85.24
41947;BME280;27638;42.184;24.848;2024-01-11T04:45:42;100898.41;;;0.54;85.45
41947;BME280;27638;42.184;24.848;2024-01-11T04:48:08;100893.97;;;0.56;85.46
41947;BME280;27638;42.184;24.848;2024-01-11T04:50:33;100891.13;;;0.61;85.23
41947;BME280;27638;42.184;24.848;2024-01-11T04:52:59;100883.31;;;0.61;84.84
41947;BME280;27638;42.184;24.848;2024-01-11T04:55:24;100891.06;;;0.62;84.26
41947;BME280;27638;42.184;24.848;2024-01-11T04:57:49;100886.84;;;0.60;84.38
41947;BME280;27638;42.184;24.848;2024-01-11T05:00:15;100885.22;;;0.57;84.53
41947;BME280;27638;42.184;24.848;2024-01-11T05:02:41;100886.06;;;0.58;84.18
41947;BME280;27638;42.184;24.848;2024-01-11T05:05:06;100855.28;;;0.47;84.52
41947;BME280;27638;42.184;24.848;2024-01-11T05:07:31;100875.28;;;0.66;83.96
41947;BME280;27638;42.184;24.848;2024-01-11T05:09:57;100875.50;;;0.61;84.13
41947;BME280;27638;42.184;24.848;2024-01-11T05:12:22;100870.09;;;0.47;83.63
41947;BME280;27638;42.184;24.848;2024-01-11T05:14:48;100867.25;;;0.32;84.87
41947;BME280;27638;42.184;24.848;2024-01-11T05:17:13;100878.31;;;0.19;85.25
41947;BME280;27638;42.184;24.848;2024-01-11T05:19:39;100870.75;;;0.13;85.80
41947;BME280;27638;42.184;24.848;2024-01-11T05:22:04;100878.00;;;0.06;86.03
41947;BME280;27638;42.184;24.848;2024-01-11T05:24:30;100878.78;;;0.08;86.12
41947;BME280;27638;42.184;24.848;2024-01-11T05:26:55;100874.84;;;0.18;85.92
41947;BME280;27638;42.184;24.848;2024-01-11T05:29:21;100872.59;;;0.11;85.75
41947;BME280;27638;42.184;24.848;2024-01-11T05:31:46;100871.53;;;0.15;85.58
41947;BME280;27638;42.184;24.848;2024-01-11T05:34:12;100863.53;;;0.19;85.40
41947;BME280;27638;42.184;24.848;2024-01-11T05:36:38;100864.09;;;0.26;85.23
41947;BME280;27638;42.184;24.848;2024-01-11T05:39:03;100861.56;;;0.24;84.73
41947;BME280;27638;42.184;24.848;2024-01-11T05:41:29;100860.72;;;0.24;85.44
41947;BME280;27638;42.184;24.848;2024-01-11T05:43:54;100865.06;;;0.23;85.35
41947;BME280;27638;42.184;24.848;2024-01-11T05:46:20;100857.97;;;0.27;85.49
41947;BME280;27638;42.184;24.848;2024-01-11T05:48:45;100861.28;;;0.30;85.14
41947;BME280;27638;42.184;24.848;2024-01-11T05:51:10;100852.25;;;0.19;85.37
41947;BME280;27638;42.184;24.848;2024-01-11T05:53:36;100849.88;;;0.14;85.76
41947;BME280;27638;42.184;24.848;2024-01-11T05:56:02;100845.09;;;0.24;85.77
41947;BME280;27638;42.184;24.848;2024-01-11T05:58:32;100850.00;;;0.30;85.52
41947;BME280;27638;42.184;24.848;2024-01-11T06:00:57;100851.69;;;0.31;85.64
41947;BME280;27638;42.184;24.848;2024-01-11T06:03:22;100857.41;;;0.39;85.26
41947;BME280;27638;42.184;24.848;2024-01-11T06:05:48;100851.84;;;0.47;84.85
41947;BME280;27638;42.184;24.848;2024-01-11T06:08:13;100838.53;;;0.53;84.68
41947;BME280;27638;42.184;24.848;2024-01-11T06:10:39;100850.34;;;0.60;84.60
41947;BME280;27638;42.184;24.848;2024-01-11T06:13:04;100849.59;;;0.58;84.68
41947;BME280;27638;42.184;24.848;2024-01-11T06:15:30;100851.47;;;0.54;84.81
41947;BME280;27638;42.184;24.848;2024-01-11T06:17:55;100845.50;;;0.52;84.90
41947;BME280;27638;42.184;24.848;2024-01-11T06:20:21;100849.44;;;0.42;85.82
41947;BME280;27638;42.184;24.848;2024-01-11T06:22:46;100847.53;;;0.27;86.72
41947;BME280;27638;42.184;24.848;2024-01-11T06:25:12;100843.13;;;0.29;86.76
41947;BME280;27638;42.184;24.848;2024-01-11T06:27:37;100850.63;;;0.16;87.02
41947;BME280;27638;42.184;24.848;2024-01-11T06:30:03;100851.69;;;0.31;87.09
41947;BME280;27638;42.184;24.848;2024-01-11T06:32:29;100848.19;;;0.32;87.01
41947;BME280;27638;42.184;24.848;2024-01-11T06:34:54;100843.69;;;0.36;87.19
41947;BME280;27638;42.184;24.848;2024-01-11T06:37:19;100844.38;;;0.39;87.08
41947;BME280;27638;42.184;24.848;2024-01-11T06:39:45;100838.88;;;0.45;86.79
41947;BME280;27638;42.184;24.848;2024-01-11T06:42:11;100839.66;;;0.47;86.38
41947;BME280;27638;42.184;24.848;2024-01-11T06:44:37;100842.19;;;0.30;87.75
41947;BME280;27638;42.184;24.848;2024-01-11T06:47:02;100836.22;;;0.47;87.57
41947;BME280;27638;42.184;24.848;2024-01-11T06:49:30;100839.16;;;0.58;87.45
41947;BME280;27638;42.184;24.848;2024-01-11T06:51:56;100833.94;;;0.58;87.12
41947;BME280;27638;42.184;24.848;2024-01-11T06:54:22;100836.22;;;0.47;87.58
41947;BME280;27638;42.184;24.848;2024-01-11T06:56:47;100831.91;;;0.27;88.83
41947;BME280;27638;42.184;24.848;2024-01-11T06:59:13;100834.66;;;0.43;89.12
41947;BME280;27638;42.184;24.848;2024-01-11T07:01:38;100835.38;;;0.46;88.73
41947;BME280;27638;42.184;24.848;2024-01-11T07:04:04;100827.97;;;0.56;89.17
41947;BME280;27638;42.184;24.848;2024-01-11T07:06:29;100833.66;;;0.64;89.21
41947;BME280;27638;42.184;24.848;2024-01-11T07:08:55;100834.75;;;0.77;89.89
41947;BME280;27638;42.184;24.848;2024-01-11T07:11:20;100835.25;;;0.85;90.07
41947;BME280;27638;42.184;24.848;2024-01-11T07:13:46;100839.53;;;1.05;89.42
41947;BME280;27638;42.184;24.848;2024-01-11T07:16:11;100831.00;;;1.19;88.83
41947;BME280;27638;42.184;24.848;2024-01-11T07:18:37;100832.16;;;1.31;88.42
41947;BME280;27638;42.184;24.848;2024-01-11T07:21:03;100825.25;;;1.47;88.53
41947;BME280;27638;42.184;24.848;2024-01-11T07:23:28;100826.84;;;1.67;88.41
41947;BME280;27638;42.184;24.848;2024-01-11T07:25:54;100822.81;;;1.77;87.71
41947;BME280;27638;42.184;24.848;2024-01-11T07:28:19;100825.72;;;1.88;86.92
41947;BME280;27638;42.184;24.848;2024-01-11T07:30:50;100819.25;;;1.95;86.52
41947;BME280;27638;42.184;24.848;2024-01-11T07:33:16;100812.09;;;1.99;86.14
41947;BME280;27638;42.184;24.848;2024-01-11T07:35:41;100810.56;;;1.95;86.34
41947;BME280;27638;42.184;24.848;2024-01-11T07:38:07;100803.34;;;2.00;87.30
41947;BME280;27638;42.184;24.848;2024-01-11T07:40:32;100802.09;;;2.07;87.36
41947;BME280;27638;42.184;24.848;2024-01-11T07:42:58;100800.09;;;2.12;87.40
41947;BME280;27638;42.184;24.848;2024-01-11T07:45:23;100795.81;;;2.11;87.72
41947;BME280;27638;42.184;24.848;2024-01-11T07:47:49;100791.00;;;2.35;87.38
41947;BME280;27638;42.184;24.848;2024-01-11T07:50:15;100791.41;;;2.59;86.02
41947;BME280;27638;42.184;24.848;2024-01-11T07:52:40;100788.81;;;2.59;86.10
41947;BME280;27638;42.184;24.848;2024-01-11T07:55:09;100795.38;;;2.66;86.36
41947;BME280;27638;42.184;24.848;2024-01-11T07:57:38;100791.91;;;2.81;86.10
41947;BME280;27638;42.184;24.848;2024-01-11T08:00:05;100796.38;;;2.79;85.29
41947;BME280;27638;42.184;24.848;2024-01-11T08:02:32;100792.31;;;2.89;85.05
41947;BME280;27638;42.184;24.848;2024-01-11T08:04:58;100772.97;;;2.92;84.68
41947;BME280;27638;42.184;24.848;2024-01-11T08:07:27;100779.53;;;2.99;84.96
41947;BME280;27638;42.184;24.848;2024-01-11T08:09:53;100787.03;;;3.05;85.14
41947;BME280;27638;42.184;24.848;2024-01-11T08:12:19;100786.69;;;3.11;84.62
41947;BME280;27638;42.184;24.848;2024-01-11T08:14:44;100785.84;;;3.10;84.28
41947;BME280;27638;42.184;24.848;2024-01-11T08:17:12;100780.59;;;3.10;84.07
41947;BME280;27638;42.184;24.848;2024-01-11T08:19:39;100781.53;;;3.09;84.26
41947;BME280;27638;42.184;24.848;2024-01-11T08:22:05;100778.81;;;3.11;84.63
41947;BME280;27638;42.184;24.848;2024-01-11T08:24:31;100770.94;;;2.97;85.40
41947;BME280;27638;42.184;24.848;2024-01-11T08:26:56;100770.97;;;2.81;86.13
41947;BME280;27638;42.184;24.848;2024-01-11T08:29:22;100776.38;;;2.78;86.18
41947;BME280;27638;42.184;24.848;2024-01-11T08:31:48;100775.72;;;3.04;85.78
41947;BME280;27638;42.184;24.848;2024-01-11T08:34:14;100771.59;;;3.00;85.67
41947;BME280;27638;42.184;24.848;2024-01-11T08:36:39;100764.13;;;3.08;85.86
41947;BME280;27638;42.184;24.848;2024-01-11T08:39:06;100752.75;;;2.79;86.69
41947;BME280;27638;42.184;24.848;2024-01-11T08:41:32;100751.91;;;3.09;86.18
41947;BME280;27638;42.184;24.848;2024-01-11T08:43:58;100746.31;;;2.85;86.38
41947;BME280;27638;42.184;24.848;2024-01-11T08:46:26;100748.72;;;2.74;88.54
41947;BME280;27638;42.184;24.848;2024-01-11T08:48:53;100746.38;;;2.99;87.70
41947;BME280;27638;42.184;24.848;2024-01-11T08:51:19;100744.09;;;3.23;87.24
41947;BME280;27638;42.184;24.848;2024-01-11T08:53:45;100740.00;;;3.33;85.91
41947;BME280;27638;42.184;24.848;2024-01-11T08:56:10;100728.59;;;3.20;83.33
41947;BME280;27638;42.184;24.848;2024-01-11T08:58:36;100725.13;;;3.19;82.73
41947;BME280;27638;42.184;24.848;2024-01-11T09:01:02;100720.66;;;2.62;84.89
41947;BME280;27638;42.184;24.848;2024-01-11T09:03:28;100717.09;;;2.63;87.13
41947;BME280;27638;42.184;24.848;2024-01-11T09:05:54;100712.88;;;2.90;86.29
41947;BME280;27638;42.184;24.848;2024-01-11T09:08:22;100718.94;;;2.76;86.82
41947;BME280;27638;42.184;24.848;2024-01-11T09:10:48;100700.91;;;2.86;87.18
41947;BME280;27638;42.184;24.848;2024-01-11T09:13:13;100692.97;;;3.17;87.08
41947;BME280;27638;42.184;24.848;2024-01-11T09:15:41;100689.91;;;3.25;86.08
41947;BME280;27638;42.184;24.848;2024-01-11T09:18:06;100696.53;;;3.31;85.80
41947;BME280;27638;42.184;24.848;2024-01-11T09:20:31;100696.06;;;3.24;86.18
41947;BME280;27638;42.184;24.848;2024-01-11T09:22:57;100687.00;;;3.30;84.26
41947;BME280;27638;42.184;24.848;2024-01-11T09:25:22;100696.19;;;3.07;83.52
41947;BME280;27638;42.184;24.848;2024-01-11T09:27:49;100677.47;;;3.14;83.39
41947;BME280;27638;42.184;24.848;2024-01-11T09:30:15;100668.31;;;3.36;84.08
41947;BME280;27638;42.184;24.848;2024-01-11T09:32:40;100670.25;;;3.18;84.61
41947;BME280;27638;42.184;24.848;2024-01-11T09:35:06;100666.06;;;3.30;83.91
41947;BME280;27638;42.184;24.848;2024-01-11T09:37:31;100663.81;;;3.38;83.55
41947;BME280;27638;42.184;24.848;2024-01-11T09:39:57;100660.44;;;3.36;82.05
41947;BME280;27638;42.184;24.848;2024-01-11T09:42:22;100654.56;;;3.46;81.83
41947;BME280;27638;42.184;24.848;2024-01-11T09:44:48;100651.94;;;3.32;82.41
41947;BME280;27638;42.184;24.848;2024-01-11T09:47:15;100646.03;;;3.43;83.46
41947;BME280;27638;42.184;24.848;2024-01-11T09:49:44;100626.31;;;3.51;82.77
41947;BME280;27638;42.184;24.848;2024-01-11T09:52:11;100628.63;;;3.56;82.97
41947;BME280;27638;42.184;24.848;2024-01-11T09:54:38;100619.31;;;3.38;83.92
41947;BME280;27638;42.184;24.848;2024-01-11T09:57:06;100607.88;;;3.53;82.44
41947;BME280;27638;42.184;24.848;2024-01-11T09:59:32;100603.09;;;3.60;83.00
41947;BME280;27638;42.184;24.848;2024-01-11T10:01:59;100606.34;;;3.77;83.27
41947;BME280;27638;42.184;24.848;2024-01-11T10:04:26;100608.41;;;3.99;82.47
41947;BME280;27638;42.184;24.848;2024-01-11T10:06:53;100605.69;;;4.01;82.13
41947;BME280;27638;42.184;24.848;2024-01-11T10:09:20;100591.78;;;4.13;81.78
41947;BME280;27638;42.184;24.848;2024-01-11T10:11:46;100595.25;;;4.13;80.68
41947;BME280;27638;42.184;24.848;2024-01-11T10:14:14;100585.56;;;4.28;80.87
41947;BME280;27638;42.184;24.848;2024-01-11T10:16:41;100583.91;;;4.40;80.77
41947;BME280;27638;42.184;24.848;2024-01-11T10:19:08;100577.72;;;4.41;80.63
41947;BME280;27638;42.184;24.848;2024-01-11T10:21:37;100569.56;;;4.58;80.44
41947;BME280;27638;42.184;24.848;2024-01-11T10:24:04;100565.34;;;4.30;80.22
41947;BME280;27638;42.184;24.848;2024-01-11T10:26:30;100556.63;;;4.30;79.57
41947;BME280;27638;42.184;24.848;2024-01-11T10:28:59;100561.25;;;3.99;80.61
41947;BME280;27638;42.184;24.848;2024-01-11T10:31:24;100553.78;;;4.20;80.48
41947;BME280;27638;42.184;24.848;2024-01-11T10:33:52;100549.81;;;4.27;79.87
41947;BME280;27638;42.184;24.848;2024-01-11T10:36:18;100545.63;;;4.25;78.94
41947;BME280;27638;42.184;24.848;2024-01-11T10:38:46;100541.44;;;4.35;79.57
41947;BME280;27638;42.184;24.848;2024-01-11T10:41:13;100528.09;;;4.25;79.85
41947;BME280;27638;42.184;24.848;2024-01-11T10:43:43;100503.59;;;3.99;80.29
41947;BME280;27638;42.184;24.848;2024-01-11T10:46:10;100523.09;;;4.35;79.66
41947;BME280;27638;42.184;24.848;2024-01-11T10:48:42;100514.16;;;4.37;80.22
41947;BME280;27638;42.184;24.848;2024-01-11T10:51:12;100510.28;;;4.43;80.17
41947;BME280;27638;42.184;24.848;2024-01-11T10:53:41;100508.28;;;4.46;80.06
41947;BME280;27638;42.184;24.848;2024-01-11T10:56:09;100510.41;;;4.54;79.82
41947;BME280;27638;42.184;24.848;2024-01-11T10:58:35;100491.31;;;4.52;78.49
41947;BME280;27638;42.184;24.848;2024-01-11T11:01:02;100500.00;;;4.53;79.06
41947;BME280;27638;42.184;24.848;2024-01-11T11:03:30;100492.25;;;4.51;78.37
41947;BME280;27638;42.184;24.848;2024-01-11T11:05:58;100484.59;;;4.48;77.98
41947;BME280;27638;42.184;24.848;2024-01-11T11:08:24;100483.63;;;4.62;79.88
41947;BME280;27638;42.184;24.848;2024-01-11T11:11:00;100483.22;;;4.68;78.69
41947;BME280;27638;42.184;24.848;2024-01-11T11:13:26;100478.59;;;4.71;78.45
41947;BME280;27638;42.184;24.848;2024-01-11T11:15:53;100467.16;;;4.72;79.57
41947;BME280;27638;42.184;24.848;2024-01-11T11:18:20;100464.56;;;4.47;79.45
41947;BME280;27638;42.184;24.848;2024-01-11T11:20:47;100466.31;;;4.59;79.83
41947;BME280;27638;42.184;24.848;2024-01-11T11:23:15;100462.13;;;4.69;78.63
41947;BME280;27638;42.184;24.848;2024-01-11T11:25:43;100453.59;;;4.78;78.06
41947;BME280;27638;42.184;24.848;2024-01-11T11:28:14;100448.25;;;4.80;79.00
41947;BME280;27638;42.184;24.848;2024-01-11T11:30:41;100447.09;;;4.84;79.43
41947;BME280;27638;42.184;24.848;2024-01-11T11:33:18;100443.41;;;4.87;79.27
41947;BME280;27638;42.184;24.848;2024-01-11T11:35:45;100435.53;;;4.87;78.66
41947;BME280;27638;42.184;24.848;2024-01-11T11:38:21;100429.22;;;4.89;78.91
41947;BME280;27638;42.184;24.848;2024-01-11T11:40:48;100422.81;;;4.93;78.35
41947;BME280;27638;42.184;24.848;2024-01-11T11:43:18;100415.38;;;4.87;78.32
41947;BME280;27638;42.184;24.848;2024-01-11T11:45:45;100420.41;;;4.90;78.61
41947;BME280;27638;42.184;24.848;2024-01-11T11:51:12;100400.88;;;4.94;78.69
41947;BME280;27638;42.184;24.848;2024-01-11T11:53:38;100395.81;;;5.04;79.13
41947;BME280;27638;42.184;24.848;2024-01-11T11:56:05;100389.66;;;4.92;79.36
41947;BME280;27638;42.184;24.848;2024-01-11T11:58:33;100394.53;;;5.09;78.92
41947;BME280;27638;42.184;24.848;2024-01-11T12:00:59;100382.69;;;5.04;78.30
41947;BME280;27638;42.184;24.848;2024-01-11T12:03:31;100366.97;;;5.15;78.69
41947;BME280;27638;42.184;24.848;2024-01-11T12:06:03;100361.44;;;5.07;77.96
41947;BME280;27638;42.184;24.848;2024-01-11T12:08:29;100364.34;;;5.15;77.15
41947;BME280;27638;42.184;24.848;2024-01-11T12:10:55;100351.00;;;5.18;75.46
41947;BME280;27638;42.184;24.848;2024-01-11T12:13:20;100344.19;;;5.16;74.41
41947;BME280;27638;42.184;24.848;2024-01-11T12:15:47;100337.03;;;5.18;74.29
41947;BME280;27638;42.184;24.848;2024-01-11T12:18:12;100336.63;;;5.24;73.97
41947;BME280;27638;42.184;24.848;2024-01-11T12:20:37;100335.22;;;5.31;73.62
41947;BME280;27638;42.184;24.848;2024-01-11T12:23:03;100326.50;;;5.30;72.34
41947;BME280;27638;42.184;24.848;2024-01-11T12:25:30;100330.22;;;5.39;72.11
41947;BME280;27638;42.184;24.848;2024-01-11T12:27:56;100329.63;;;5.35;72.22
41947;BME280;27638;42.184;24.848;2024-01-11T12:30:22;100327.06;;;5.23;71.50
41947;BME280;27638;42.184;24.848;2024-01-11T12:32:49;100316.59;;;5.34;71.63
41947;BME280;27638;42.184;24.848;2024-01-11T12:35:15;100313.41;;;5.41;71.65
41947;BME280;27638;42.184;24.848;2024-01-11T12:37:41;100300.75;;;5.47;70.43
41947;BME280;27638;42.184;24.848;2024-01-11T12:40:07;100297.41;;;5.44;73.85
41947;BME280;27638;42.184;24.848;2024-01-11T12:42:35;100299.81;;;5.48;76.18
41947;BME280;27638;42.184;24.848;2024-01-11T12:45:01;100308.47;;;5.26;77.27
41947;BME280;27638;42.184;24.848;2024-01-11T12:47:26;100295.59;;;5.10;77.05